Time;durP1;ratioP1;P1;durP2;ratioP2;P2;SDS_P1;SDS_P2;PMS_P1;PMS_P2;Temp;Humidity;BMP_temperature;BMP_pressure;BME280_temperature;BME280_humidity;BME280_pressure;Samples;Min_cycle;Max_cycle;Signal;HPM_P1;HPM_P2
2022/06/26 00:00:04;;;;;;;20.63;18.70;;;;;;;18.45;100.00;100571.16;4994045;28;20406;-79
2022/06/26 00:02:31;;;;;;;21.67;19.55;;;;;;;18.40;100.00;100578.53;5012429;28;20037;-79
2022/06/26 00:04:58;;;;;;;21.85;19.75;;;;;;;18.35;100.00;100582.44;4991116;28;20045;-78
2022/06/26 00:07:25;;;;;;;20.90;18.90;;;;;;;18.31;100.00;100584.41;4990447;28;20124;-81
2022/06/26 00:09:51;;;;;;;20.83;18.75;;;;;;;18.28;100.00;100584.56;4995495;28;20045;-81
2022/06/26 00:12:18;;;;;;;19.52;17.73;;;;;;;18.22;100.00;100579.53;5009328;28;20040;-80
2022/06/26 00:14:45;;;;;;;20.05;18.20;;;;;;;18.21;100.00;100585.84;5003122;28;20089;-81
2022/06/26 00:17:14;;;;;;;21.58;19.58;;;;;;;18.25;100.00;100588.28;5002049;28;20068;-79
2022/06/26 00:19:44;;;;;;;20.48;18.55;;;;;;;18.27;100.00;100588.19;5003196;28;20585;-79
2022/06/26 00:22:13;;;;;;;21.67;19.67;;;;;;;18.27;100.00;100582.84;5002820;28;20064;-79
2022/06/26 00:24:42;;;;;;;21.50;19.48;;;;;;;18.35;100.00;100583.31;4997914;28;20069;-81
2022/06/26 00:27:09;;;;;;;20.75;18.75;;;;;;;18.23;100.00;100581.25;4994693;28;20080;-81
2022/06/26 00:29:35;;;;;;;20.98;18.83;;;;;;;18.16;100.00;100582.53;4999803;28;20388;-80
2022/06/26 00:32:04;;;;;;;22.27;20.02;;;;;;;18.15;100.00;100581.66;5017125;28;20790;-80
2022/06/26 00:34:31;;;;;;;20.23;18.23;;;;;;;18.10;100.00;100590.91;4997679;28;20505;-79
2022/06/26 00:36:58;;;;;;;20.88;18.95;;;;;;;18.07;100.00;100588.38;5003539;28;20120;-81
2022/06/26 00:39:25;;;;;;;20.20;18.20;;;;;;;18.05;100.00;100587.59;5015383;28;20071;-80
2022/06/26 00:41:52;;;;;;;20.23;18.15;;;;;;;18.04;100.00;100591.22;4996559;28;20649;-79
2022/06/26 00:44:21;;;;;;;21.52;19.38;;;;;;;18.02;100.00;100587.75;5012404;28;20052;-78
2022/06/26 00:46:51;;;;;;;19.98;18.10;;;;;;;18.00;100.00;100586.03;5008332;28;20041;-80
2022/06/26 00:49:20;;;;;;;21.55;19.45;;;;;;;17.98;100.00;100585.22;4996195;28;20034;-80
2022/06/26 00:51:50;;;;;;;19.75;17.85;;;;;;;17.93;100.00;100589.97;5006351;28;20037;-78
2022/06/26 00:54:20;;;;;;;19.90;17.92;;;;;;;17.96;100.00;100591.63;4997798;28;20033;-82
2022/06/26 00:56:47;;;;;;;20.50;18.60;;;;;;;17.94;100.00;100588.16;4977321;28;20695;-80
2022/06/26 00:59:17;;;;;;;20.27;18.20;;;;;;;17.92;100.00;100595.41;4995870;28;20478;-81
2022/06/26 01:01:44;;;;;;;19.45;17.65;;;;;;;17.93;100.00;100589.97;4994727;28;20092;-80
2022/06/26 01:04:11;;;;;;;19.00;17.20;;;;;;;17.92;100.00;100592.72;4987446;28;20038;-81
2022/06/26 01:06:38;;;;;;;19.45;17.75;;;;;;;17.88;100.00;100601.84;4981643;28;20045;-79
2022/06/26 01:09:10;;;;;;;18.80;16.98;;;;;;;17.88;100.00;100604.50;4986081;28;20042;-79
2022/06/26 01:11:37;;;;;;;19.13;17.33;;;;;;;17.83;100.00;100606.56;4996872;28;20034;-79
2022/06/26 01:14:04;;;;;;;17.75;16.05;;;;;;;17.80;100.00;100607.56;4991557;28;20045;-78
2022/06/26 01:16:32;;;;;;;18.55;16.75;;;;;;;17.78;100.00;100606.78;4998171;28;20042;-79
2022/06/26 01:18:59;;;;;;;19.00;17.13;;;;;;;17.77;100.00;100605.06;4991988;28;20073;-79
2022/06/26 01:21:24;;;;;;;20.17;18.17;;;;;;;17.75;100.00;100608.78;4993907;28;20530;-79
2022/06/26 01:23:52;;;;;;;19.95;18.05;;;;;;;17.79;100.00;100610.31;5012305;28;20563;-80
2022/06/26 01:26:20;;;;;;;19.02;17.23;;;;;;;17.72;100.00;100613.31;4994860;28;20041;-80
2022/06/26 01:28:46;;;;;;;18.88;17.23;;;;;;;17.75;100.00;100612.31;4992559;28;20068;-78
2022/06/26 01:31:13;;;;;;;19.02;17.17;;;;;;;17.70;100.00;100617.00;4995107;28;20095;-77
2022/06/26 01:33:40;;;;;;;19.63;17.63;;;;;;;17.70;100.00;100619.69;5011076;28;20045;-78
2022/06/26 01:36:07;;;;;;;20.48;18.25;;;;;;;17.68;100.00;100619.72;4997165;28;20048;-78
2022/06/26 01:38:33;;;;;;;19.52;17.63;;;;;;;17.63;100.00;100624.44;4994908;28;20037;-80
2022/06/26 01:41:00;;;;;;;18.63;16.92;;;;;;;17.60;100.00;100626.41;4986960;28;20485;-80
2022/06/26 01:43:32;;;;;;;17.15;15.50;;;;;;;17.58;100.00;100630.97;4995634;28;20045;-79
2022/06/26 01:45:59;;;;;;;18.20;16.50;;;;;;;17.57;100.00;100637.22;4977656;28;20080;-81
2022/06/26 01:48:31;;;;;;;17.67;15.95;;;;;;;17.60;100.00;100631.75;4995085;28;20061;-77
2022/06/26 01:51:00;;;;;;;19.88;17.98;;;;;;;17.61;100.00;100620.09;4989995;28;20054;-80
2022/06/26 01:53:27;;;;;;;17.63;16.05;;;;;;;17.56;100.00;100627.47;5012167;28;20042;-81
2022/06/26 01:55:54;;;;;;;18.67;16.88;;;;;;;17.53;100.00;100632.97;4995493;28;20041;-79
2022/06/26 01:58:21;;;;;;;18.88;16.98;;;;;;;17.49;100.00;100637.63;4992937;28;20045;-80
2022/06/26 02:00:48;;;;;;;18.60;16.80;;;;;;;17.43;100.00;100638.78;5006648;28;20046;-77
2022/06/26 02:03:15;;;;;;;17.45;15.85;;;;;;;17.39;100.00;100639.00;4993619;28;20045;-79
2022/06/26 02:05:42;;;;;;;18.67;16.85;;;;;;;17.39;100.00;100631.84;4993489;28;20053;-78
2022/06/26 02:08:09;;;;;;;20.15;18.25;;;;;;;17.40;100.00;100632.72;5011370;28;20036;-80
2022/06/26 02:13:36;;;;;;;21.02;19.02;;;;;;;17.41;100.00;100626.47;5022401;28;20490;-79
2022/06/26 02:16:17;;;;;;;18.80;17.00;;;;;;;17.34;100.00;100633.91;5014150;28;20045;-79
2022/06/26 02:18:49;;;;;;;18.50;16.73;;;;;;;17.30;100.00;100634.97;4982883;28;20052;-76
2022/06/26 02:21:17;;;;;;;18.88;17.00;;;;;;;17.26;100.00;100637.88;5010089;28;20457;-78
2022/06/26 02:23:46;;;;;;;18.13;16.35;;;;;;;17.20;100.00;100644.38;4977983;28;20048;-77
2022/06/26 02:26:13;;;;;;;18.42;16.80;;;;;;;17.18;100.00;100632.91;4998844;28;20037;-79
2022/06/26 02:28:40;;;;;;;19.73;17.83;;;;;;;17.17;100.00;100648.06;5011854;28;20041;-78
2022/06/26 02:31:07;;;;;;;18.75;16.98;;;;;;;17.19;100.00;100649.78;5022127;28;20465;-78
2022/06/26 02:33:38;;;;;;;18.35;16.48;;;;;;;17.15;100.00;100644.59;5017762;28;20060;-77
2022/06/26 02:36:06;;;;;;;19.38;17.58;;;;;;;17.15;100.00;100657.97;4999478;28;20041;-78
2022/06/26 02:38:34;;;;;;;18.50;16.75;;;;;;;17.13;100.00;100649.13;4993127;28;20045;-77
2022/06/26 02:41:01;;;;;;;20.33;18.33;;;;;;;17.13;100.00;100653.59;5012738;28;20045;-78
2022/06/26 02:43:28;;;;;;;18.88;17.00;;;;;;;17.10;100.00;100657.28;5014725;28;20475;-79
2022/06/26 02:45:57;;;;;;;20.30;18.33;;;;;;;17.10;100.00;100651.09;4997994;28;20177;-76
2022/06/26 02:48:25;;;;;;;20.75;18.38;;;;;;;17.13;100.00;100650.94;5015908;28;20044;-79
2022/06/26 02:50:52;;;;;;;20.05;18.08;;;;;;;17.09;100.00;100654.72;4996139;28;20038;-78
2022/06/26 02:53:18;;;;;;;21.45;19.42;;;;;;;17.11;100.00;100659.03;4999274;28;20553;-79
2022/06/26 02:55:45;;;;;;;19.98;18.05;;;;;;;17.06;100.00;100655.69;5015128;28;20087;-77
2022/06/26 02:58:12;;;;;;;20.27;18.27;;;;;;;17.05;100.00;100655.78;5000019;28;20041;-79
2022/06/26 03:00:38;;;;;;;19.55;17.58;;;;;;;17.05;100.00;100655.78;4995994;28;20042;-78
2022/06/26 03:03:05;;;;;;;21.00;18.95;;;;;;;17.05;100.00;100661.13;4991093;28;20041;-76
2022/06/26 03:05:32;;;;;;;19.48;17.58;;;;;;;17.05;100.00;100666.44;4993572;28;20495;-80
2022/06/26 03:07:59;;;;;;;20.23;18.15;;;;;;;17.05;100.00;100666.44;5014155;28;20096;-81
2022/06/26 03:10:26;;;;;;;19.20;17.40;;;;;;;17.08;100.00;100661.84;5009235;28;20051;-80
2022/06/26 03:12:53;;;;;;;20.40;18.30;;;;;;;17.15;100.00;100667.75;5019342;28;20057;-80
2022/06/26 03:15:20;;;;;;;19.80;17.90;;;;;;;17.12;100.00;100666.09;4996271;28;20046;-79
2022/06/26 03:17:47;;;;;;;20.85;18.63;;;;;;;17.10;100.00;100659.09;5010717;28;20499;-80
2022/06/26 03:20:17;;;;;;;21.10;19.02;;;;;;;17.11;100.00;100671.50;5014315;28;20049;-78
2022/06/26 03:22:43;;;;;;;20.58;18.45;;;;;;;17.13;100.00;100672.28;5004505;28;20624;-80
2022/06/26 03:25:10;;;;;;;20.88;18.77;;;;;;;17.13;100.00;100667.81;5002430;28;20038;-80
2022/06/26 03:27:37;;;;;;;20.50;18.40;;;;;;;17.10;100.00;100673.31;5000641;28;20049;-81
2022/06/26 03:30:06;;;;;;;20.63;18.60;;;;;;;17.11;100.00;100666.16;4987166;28;20041;-77
2022/06/26 03:32:33;;;;;;;20.35;18.45;;;;;;;17.10;100.00;100673.31;4991684;28;20045;-79
2022/06/26 03:35:00;;;;;;;19.50;17.60;;;;;;;17.09;100.00;100676.91;4999577;28;20049;-81
2022/06/26 03:37:26;;;;;;;21.85;18.98;;;;;;;17.14;100.00;100682.03;5011621;28;20095;-79
2022/06/26 03:39:53;;;;;;;20.92;19.00;;;;;;;17.16;100.00;100680.19;4994654;28;20514;-80
2022/06/26 03:42:20;;;;;;;20.27;18.27;;;;;;;17.18;100.00;100680.97;5003686;28;20049;-80
2022/06/26 03:44:46;;;;;;;20.23;18.23;;;;;;;17.23;100.00;100686.94;5013012;28;20041;-79
2022/06/26 03:47:13;;;;;;;20.08;18.08;;;;;;;17.26;100.00;100684.13;5005068;28;20083;-78
2022/06/26 03:49:40;;;;;;;20.35;18.23;;;;;;;17.34;100.00;100689.97;5022799;28;20033;-80
2022/06/26 03:52:07;;;;;;;20.85;18.80;;;;;;;17.43;100.00;100680.66;5021137;28;20048;-79
2022/06/26 03:54:34;;;;;;;19.13;17.30;;;;;;;17.43;100.00;100696.69;4999772;28;20095;-78
2022/06/26 03:57:02;;;;;;;19.58;17.77;;;;;;;17.46;100.00;100693.84;5017613;28;20033;-79
2022/06/26 03:59:28;;;;;;;19.38;17.48;;;;;;;17.48;100.00;100691.97;5012171;28;20037;-78
2022/06/26 04:01:55;;;;;;;18.42;16.63;;;;;;;17.50;100.00;100692.78;4997426;28;20041;-78
2022/06/26 04:04:22;;;;;;;19.05;17.17;;;;;;;17.56;100.00;100691.59;5031892;28;20068;-80
2022/06/26 04:06:49;;;;;;;21.17;19.08;;;;;;;17.60;100.00;100694.06;5000414;28;20053;-80
2022/06/26 04:09:15;;;;;;;20.77;18.77;;;;;;;17.67;100.00;100691.94;5011683;28;20494;-77
2022/06/26 04:11:42;;;;;;;19.13;17.33;;;;;;;17.71;100.00;100694.41;4983372;28;21060;-79
2022/06/26 04:14:08;;;;;;;18.73;16.92;;;;;;;17.74;100.00;100696.09;5031672;28;20045;-79
2022/06/26 04:16:35;;;;;;;19.55;17.75;;;;;;;17.83;100.00;100698.31;4997726;28;20048;-78
2022/06/26 04:19:02;;;;;;;19.00;17.30;;;;;;;17.86;100.00;100692.78;5029566;28;20133;-79
2022/06/26 04:21:29;;;;;;;18.60;16.90;;;;;;;17.94;100.00;100692.41;5033610;28;20034;-79
2022/06/26 04:23:56;;;;;;;18.92;17.13;;;;;;;17.98;100.00;100704.66;4997534;28;20053;-78
2022/06/26 04:26:22;;;;;;;19.58;17.67;;;;;;;18.00;100.00;100692.97;5031674;28;20088;-79
2022/06/26 04:28:49;;;;;;;19.95;18.10;;;;;;;18.07;100.00;100692.63;4990707;28;20095;-79
2022/06/26 04:31:16;;;;;;;19.60;17.63;;;;;;;18.12;100.00;100693.28;5000652;28;20129;-78
2022/06/26 04:33:43;;;;;;;18.20;16.30;;;;;;;18.20;100.00;100694.63;4997172;28;20045;-80
2022/06/26 04:36:11;;;;;;;19.08;17.17;;;;;;;18.18;100.00;100703.66;5015154;28;20039;-78
2022/06/26 04:38:38;;;;;;;17.13;15.60;;;;;;;18.22;100.00;100700.75;4995076;28;20049;-77
2022/06/26 04:41:31;;;;;;;17.75;16.05;;;;;;;18.32;100.00;100694.91;5009776;28;20050;-81
2022/06/26 04:43:51;;;;;;;16.50;14.98;;;;;;;18.44;100.00;100707.66;5007620;28;20034;-79
2022/06/26 04:46:18;;;;;;;18.92;17.23;;;;;;;18.52;100.00;100705.44;4994218;28;20041;-80
2022/06/26 04:48:44;;;;;;;18.55;16.75;;;;;;;18.57;100.00;100708.72;4996214;28;20107;-79
2022/06/26 04:51:11;;;;;;;17.33;15.73;;;;;;;18.73;100.00;100707.00;4998190;28;20099;-80
2022/06/26 04:53:38;;;;;;;15.98;14.57;;;;;;;18.74;100.00;100705.19;5013642;28;20046;-79
2022/06/26 04:56:05;;;;;;;15.82;14.38;;;;;;;18.79;100.00;100711.19;5010847;28;20052;-79
2022/06/26 04:58:32;;;;;;;17.10;15.50;;;;;;;18.82;100.00;100711.00;4993428;28;20042;-80
2022/06/26 05:00:58;;;;;;;16.05;14.45;;;;;;;18.93;100.00;100713.97;5005451;28;20103;-77
2022/06/26 05:03:25;;;;;;;16.80;15.30;;;;;;;19.08;100.00;100709.59;4995309;28;20096;-78
2022/06/26 05:05:56;;;;;;;16.45;14.95;;;;;;;19.23;100.00;100714.09;4994221;28;20411;-78
2022/06/26 05:08:23;;;;;;;15.82;14.32;;;;;;;19.43;100.00;100714.81;4991949;28;20038;-79
2022/06/26 05:10:50;;;;;;;17.50;15.93;;;;;;;19.65;100.00;100715.34;4999885;28;20046;-79
2022/06/26 05:13:17;;;;;;;17.00;15.07;;;;;;;19.82;100.00;100712.56;4993569;28;20042;-78
2022/06/26 05:15:44;;;;;;;17.60;16.00;;;;;;;20.04;100.00;100712.19;5010888;28;20044;-79
2022/06/26 05:18:10;;;;;;;17.45;15.88;;;;;;;20.47;100.00;100715.00;4977609;28;20037;-78
2022/06/26 05:20:37;;;;;;;17.83;16.13;;;;;;;21.30;100.00;100713.41;5009475;28;20044;-78
2022/06/26 05:23:04;;;;;;;15.90;14.40;;;;;;;21.68;100.00;100713.59;4980034;28;20128;-79
2022/06/26 05:25:32;;;;;;;13.95;12.65;;;;;;;21.67;100.00;100722.63;5010485;28;20038;-79
2022/06/26 05:27:58;;;;;;;14.90;13.60;;;;;;;21.73;100.00;100718.69;4999876;28;20518;-79
2022/06/26 05:30:25;;;;;;;15.38;13.93;;;;;;;21.75;100.00;100719.44;5011308;28;20041;-78
2022/06/26 05:32:52;;;;;;;14.73;13.43;;;;;;;21.77;100.00;100721.06;5010759;28;20042;-78
2022/06/26 05:35:18;;;;;;;16.33;14.93;;;;;;;21.78;100.00;100722.81;5012254;28;20060;-80
2022/06/26 05:37:45;;;;;;;17.30;15.73;;;;;;;21.97;100.00;100725.13;4994908;28;20037;-79
2022/06/26 05:40:12;;;;;;;15.60;14.27;;;;;;;22.30;100.00;100713.09;4991978;28;20107;-78
2022/06/26 05:42:39;;;;;;;16.25;14.77;;;;;;;23.65;100.00;100718.72;5013843;28;20041;-79
2022/06/26 05:45:06;;;;;;;14.20;12.98;;;;;;;25.78;91.20;100716.41;4986430;28;20045;-80
2022/06/26 05:47:33;;;;;;;11.77;10.68;;;;;;;27.88;79.18;100726.06;4998735;28;20087;-80
2022/06/26 05:50:00;;;;;;;11.85;10.90;;;;;;;29.37;70.59;100722.69;5010332;28;20109;-79
2022/06/26 05:52:27;;;;;;;11.45;10.50;;;;;;;29.58;66.92;100725.16;5003891;28;20073;-80
2022/06/26 05:54:53;;;;;;;11.85;10.95;;;;;;;28.86;71.33;100723.16;5022643;28;20049;-80
2022/06/26 05:57:20;;;;;;;12.15;11.15;;;;;;;29.09;71.31;100732.69;4990352;28;20053;-81
2022/06/26 05:59:47;;;;;;;12.02;11.05;;;;;;;29.46;63.59;100730.94;5004804;28;20049;-82
2022/06/26 06:02:14;;;;;;;12.13;11.23;;;;;;;29.36;66.69;100729.13;5019121;28;20038;-79
2022/06/26 06:04:41;;;;;;;12.25;11.23;;;;;;;29.37;66.16;100730.00;5004783;28;20037;-81
2022/06/26 06:07:08;;;;;;;12.77;11.70;;;;;;;29.59;65.01;100729.59;5001393;28;20042;-80
2022/06/26 06:09:34;;;;;;;12.00;11.00;;;;;;;29.62;66.40;100732.03;5003494;28;20042;-79
2022/06/26 06:12:02;;;;;;;14.23;13.02;;;;;;;29.37;65.00;100732.72;4994568;28;20050;-81
2022/06/26 06:14:28;;;;;;;14.27;13.18;;;;;;;28.81;65.81;100737.19;5005963;28;20055;-81
2022/06/26 06:16:55;;;;;;;12.70;11.70;;;;;;;28.12;64.99;100744.66;5018054;28;20041;-80
2022/06/26 06:19:22;;;;;;;12.57;11.57;;;;;;;28.15;68.67;100745.22;4995909;28;20055;-80
2022/06/26 06:21:48;;;;;;;13.50;12.48;;;;;;;28.11;72.10;100748.38;5035694;28;20042;-81
2022/06/26 06:24:15;;;;;;;11.88;10.88;;;;;;;27.95;70.29;100744.38;5036296;28;20095;-81
2022/06/26 06:26:42;;;;;;;11.65;10.75;;;;;;;28.12;69.03;100750.09;5017242;28;20037;-81
2022/06/26 06:29:09;;;;;;;11.57;10.70;;;;;;;28.21;68.37;100754.69;5008944;28;20045;-81
2022/06/26 06:31:35;;;;;;;11.85;10.77;;;;;;;28.11;65.83;100749.25;5030153;28;20123;-79
2022/06/26 06:34:02;;;;;;;10.77;9.68;;;;;;;28.22;65.03;100756.38;5020908;28;20069;-79
2022/06/26 06:36:29;;;;;;;9.50;8.60;;;;;;;28.47;63.31;100755.84;5024943;28;20046;-81
2022/06/26 06:38:55;;;;;;;9.63;8.82;;;;;;;28.68;64.36;100757.53;4996795;28;20049;-79
2022/06/26 06:41:22;;;;;;;11.20;8.60;;;;;;;28.92;63.26;100751.63;5014506;28;20042;-81
2022/06/26 06:43:48;;;;;;;10.90;9.90;;;;;;;29.07;61.88;100759.16;5018281;28;20581;-80
2022/06/26 06:46:15;;;;;;;9.73;9.00;;;;;;;28.95;63.29;100759.50;4985564;28;20116;-81
2022/06/26 06:48:42;;;;;;;10.35;9.52;;;;;;;28.89;63.92;100755.47;5000061;28;20041;-80
2022/06/26 06:51:09;;;;;;;10.68;9.80;;;;;;;28.93;63.01;100762.38;5000700;28;20144;-80
2022/06/26 06:53:35;;;;;;;10.77;9.88;;;;;;;29.08;61.80;100763.59;4984618;28;20056;-79
2022/06/26 06:56:02;;;;;;;10.60;9.60;;;;;;;29.32;60.24;100757.63;5000432;28;20057;-80
2022/06/26 06:58:29;;;;;;;10.15;9.25;;;;;;;29.53;59.14;100765.59;4999184;28;20037;-79
2022/06/26 07:00:58;;;;;;;11.18;10.27;;;;;;;29.48;59.75;100759.72;5015592;28;20052;-80
2022/06/26 07:03:25;;;;;;;9.95;9.15;;;;;;;29.22;59.24;100761.41;5036132;28;20490;-80
2022/06/26 07:05:51;;;;;;;10.48;9.65;;;;;;;29.31;59.60;100760.50;5007631;28;20049;-81
2022/06/26 07:08:18;;;;;;;10.27;9.43;;;;;;;29.48;58.41;100767.88;5002044;28;20045;-78
2022/06/26 07:10:45;;;;;;;10.85;9.98;;;;;;;29.73;58.37;100754.59;5022855;28;20033;-78
2022/06/26 07:13:11;;;;;;;10.27;9.40;;;;;;;29.87;55.99;100762.25;4999256;28;20042;-79
2022/06/26 07:15:38;;;;;;;10.63;9.77;;;;;;;30.09;56.92;100764.53;4999451;28;20037;-79
2022/06/26 07:18:05;;;;;;;11.68;10.57;;;;;;;30.32;57.02;100764.09;4990945;28;20060;-80
2022/06/26 07:20:32;;;;;;;11.38;10.48;;;;;;;30.32;55.80;100759.50;5015818;28;20041;-78
2022/06/26 07:22:58;;;;;;;11.48;10.48;;;;;;;30.38;55.97;100760.75;4999566;28;20140;-79
2022/06/26 07:25:25;;;;;;;10.73;9.82;;;;;;;30.57;53.29;100756.97;5010702;28;20033;-79
2022/06/26 07:27:52;;;;;;;10.30;9.50;;;;;;;30.54;53.83;100753.56;4984151;28;20041;-78
2022/06/26 07:30:19;;;;;;;9.98;9.18;;;;;;;30.64;54.49;100753.44;4984052;28;20049;-77
2022/06/26 07:32:46;;;;;;;10.25;9.45;;;;;;;30.89;53.69;100740.88;5001551;28;20053;-78
2022/06/26 07:35:13;;;;;;;9.23;8.52;;;;;;;30.74;51.23;100754.22;5023713;28;20037;-78
2022/06/26 07:37:40;;;;;;;9.48;8.75;;;;;;;30.91;51.28;100754.34;5011045;28;20040;-77
2022/06/26 07:40:08;;;;;;;9.38;8.48;;;;;;;30.71;50.20;100759.16;5022397;28;20488;-78
2022/06/26 07:42:36;;;;;;;9.70;8.95;;;;;;;30.92;52.21;100754.19;5008998;28;20061;-78
2022/06/26 07:45:03;;;;;;;8.95;8.23;;;;;;;31.04;50.25;100752.06;4998489;28;20048;-78
2022/06/26 07:47:30;;;;;;;9.63;8.88;;;;;;;31.21;49.43;100753.00;5015855;28;20041;-78
2022/06/26 07:49:56;;;;;;;9.18;8.43;;;;;;;31.26;48.85;100747.91;4997958;28;20068;-78
2022/06/26 07:52:23;;;;;;;8.40;7.60;;;;;;;31.51;49.49;100747.00;5001276;28;20034;-78
2022/06/26 07:54:49;;;;;;;8.75;7.95;;;;;;;31.45;48.51;100746.81;4996240;28;20580;-79
2022/06/26 07:57:18;;;;;;;8.40;7.70;;;;;;;30.97;46.97;100751.84;4986037;28;20049;-78
2022/06/26 07:59:47;;;;;;;8.85;8.00;;;;;;;31.06;47.53;100744.56;5005321;28;20033;-79
2022/06/26 08:02:14;;;;;;;8.20;7.50;;;;;;;30.94;48.56;100744.00;4995288;28;20076;-78
2022/06/26 08:04:41;;;;;;;7.32;6.72;;;;;;;30.94;47.51;100743.09;5045514;28;20038;-78
2022/06/26 08:07:07;;;;;;;7.55;6.85;;;;;;;31.08;48.35;100757.00;5007690;28;20060;-78
2022/06/26 08:09:34;;;;;;;7.07;6.40;;;;;;;31.35;47.60;100752.41;4978715;28;20034;-79
2022/06/26 08:12:01;;;;;;;7.28;6.57;;;;;;;31.46;44.28;100754.84;4980520;28;20131;-78
2022/06/26 08:14:27;;;;;;;6.72;6.22;;;;;;;31.45;45.34;100749.53;5028353;28;20045;-78
2022/06/26 08:16:54;;;;;;;7.22;6.70;;;;;;;29.68;48.56;100739.59;5002293;28;20042;-79
2022/06/26 08:19:22;;;;;;;20.88;8.63;;;;;;;30.49;52.73;100744.13;5003369;28;20043;-78
2022/06/26 08:22:00;;;;;;;8.13;7.38;;;;;;;30.99;47.56;100738.03;5024569;28;20049;-78
2022/06/26 08:24:28;;;;;;;8.45;7.70;;;;;;;31.20;48.25;100734.91;5013304;28;20042;-80
2022/06/26 08:26:55;;;;;;;7.57;6.97;;;;;;;30.84;48.26;100740.50;5006681;28;20045;-80
2022/06/26 08:29:21;;;;;;;7.60;6.93;;;;;;;31.29;47.47;100740.28;4994851;28;20038;-78
2022/06/26 08:31:48;;;;;;;7.45;6.85;;;;;;;31.65;47.50;100746.38;4995201;28;20056;-78
2022/06/26 08:34:15;;;;;;;7.93;7.32;;;;;;;31.94;48.20;100740.50;5007630;28;20045;-78
2022/06/26 08:36:42;;;;;;;7.72;7.13;;;;;;;31.88;45.82;100738.47;5001821;28;20503;-79
2022/06/26 08:39:08;;;;;;;8.82;8.00;;;;;;;31.42;45.69;100730.75;5010300;28;20037;-78
2022/06/26 08:41:39;;;;;;;8.07;7.45;;;;;;;31.88;47.52;100733.00;5006037;28;20517;-78
2022/06/26 08:44:07;;;;;;;8.10;7.13;;;;;;;32.24;47.02;100723.63;5009881;28;20046;-79
2022/06/26 08:46:39;;;;;;;8.20;7.40;;;;;;;32.60;46.02;100729.63;5009485;28;20041;-78
2022/06/26 08:49:14;;;;;;;7.20;6.60;;;;;;;32.48;42.71;100731.88;4979613;28;20714;-78
2022/06/26 08:51:45;;;;;;;8.57;6.68;;;;;;;32.43;44.36;100731.50;4996123;28;20666;-78
2022/06/26 08:54:13;;;;;;;7.00;6.40;;;;;;;32.34;42.95;100729.81;5012180;28;20033;-78
2022/06/26 08:56:42;;;;;;;7.38;6.80;;;;;;;32.59;43.85;100723.28;5018532;28;20029;-78
2022/06/26 08:59:11;;;;;;;7.00;6.40;;;;;;;32.91;44.42;100732.53;4981437;28;20046;-79
2022/06/26 09:01:39;;;;;;;6.75;6.15;;;;;;;32.97;43.00;100732.69;5020328;28;20107;-78
2022/06/26 09:04:09;;;;;;;6.43;5.90;;;;;;;32.97;42.10;100727.19;4980738;28;20490;-78
2022/06/26 09:06:39;;;;;;;8.07;7.38;;;;;;;32.59;42.64;100731.50;4994742;28;20045;-78
2022/06/26 09:09:23;;;;;;;8.55;7.85;;;;;;;31.94;43.00;100734.19;4995952;28;21083;-78
2022/06/26 09:11:56;;;;;;;8.32;7.63;;;;;;;32.51;44.21;100727.91;4981131;28;20049;-79
2022/06/26 09:14:23;;;;;;;8.00;7.32;;;;;;;32.68;42.12;100726.88;4996164;28;20038;-80
2022/06/26 09:16:52;;;;;;;7.90;7.25;;;;;;;32.83;43.90;100725.16;4981498;28;20053;-79
2022/06/26 09:19:24;;;;;;;7.50;6.85;;;;;;;33.13;43.09;100726.31;4993415;28;20048;-81
2022/06/26 09:21:52;;;;;;;8.07;7.28;;;;;;;32.81;43.38;100729.94;4996249;28;20104;-80
2022/06/26 09:24:22;;;;;;;6.85;6.35;;;;;;;33.03;42.02;100734.69;4995166;28;20037;-80
2022/06/26 09:27:16;;;;;;;7.00;6.40;;;;;;;33.09;41.38;100726.81;4984824;28;20052;-79
2022/06/26 09:29:54;;;;;;;8.57;6.90;;;;;;;32.73;42.46;100732.69;4994775;28;20565;-78
2022/06/26 09:32:22;;;;;;;7.60;7.00;;;;;;;32.70;44.30;100733.03;4991662;28;20068;-78
2022/06/26 09:34:52;;;;;;;8.48;7.78;;;;;;;32.85;42.31;100735.94;4995799;28;20533;-78
2022/06/26 09:37:21;;;;;;;8.60;7.68;;;;;;;32.86;43.34;100726.69;4986618;28;20129;-78
2022/06/26 09:40:09;;;;;;;8.48;7.78;;;;;;;33.42;42.45;100733.06;4988682;28;20037;-78
2022/06/26 09:42:35;;;;;;;8.20;7.32;;;;;;;33.44;40.81;100723.63;5004823;28;20057;-78
2022/06/26 09:45:03;;;;;;;7.55;6.93;;;;;;;33.16;42.64;100727.81;5010191;28;20038;-78
2022/06/26 09:47:34;;;;;;;7.00;6.40;;;;;;;33.42;39.32;100724.84;5029239;28;20041;-77
2022/06/26 09:50:02;;;;;;;8.05;7.25;;;;;;;33.25;40.85;100729.50;5010208;28;20045;-78
2022/06/26 09:52:30;;;;;;;8.15;7.53;;;;;;;32.46;41.04;100734.78;5011397;28;20406;-79
2022/06/26 09:54:58;;;;;;;8.18;7.22;;;;;;;32.66;41.67;100734.41;4993391;28;20041;-78
2022/06/26 09:57:27;;;;;;;7.00;6.35;;;;;;;32.43;41.47;100721.44;5011509;28;20045;-77
2022/06/26 09:59:55;;;;;;;7.47;6.78;;;;;;;33.16;43.12;100728.69;4966275;28;20120;-79
2022/06/26 10:07:56;;;;;;;7.45;6.75;;;;;;;32.80;40.59;100719.19;5018899;28;20044;-79
2022/06/26 10:10:24;;;;;;;8.48;7.72;;;;;;;32.05;41.23;100722.09;4995292;28;20045;-78
2022/06/26 10:12:55;;;;;;;8.27;7.45;;;;;;;31.82;43.53;100730.06;4998389;28;20033;-81
2022/06/26 10:15:28;;;;;;;8.52;7.63;;;;;;;31.77;44.35;100721.50;4982690;28;20052;-80
2022/06/26 10:18:23;;;;;;;7.30;6.65;;;;;;;32.44;42.89;100719.53;4998818;28;20045;-79
2022/06/26 10:20:51;;;;;;;8.45;7.65;;;;;;;32.81;42.00;100715.41;4989853;28;20060;-80
2022/06/26 10:23:38;;;;;;;8.07;7.40;;;;;;;32.64;42.19;100720.06;4994336;28;20045;-77
2022/06/26 10:26:16;;;;;;;8.02;7.30;;;;;;;32.08;44.14;100717.13;4981005;28;20132;-80
2022/06/26 10:29:05;;;;;;;8.00;7.35;;;;;;;31.43;43.81;100721.53;4992054;28;20037;-80
2022/06/26 10:31:48;;;;;;;9.23;8.05;;;;;;;31.35;45.63;100722.38;5012196;28;20061;-79
2022/06/26 10:34:19;;;;;;;8.07;7.28;;;;;;;31.03;44.09;100717.59;4981643;28;20092;-80
2022/06/26 10:37:13;;;;;;;8.45;7.65;;;;;;;30.98;45.59;100725.41;4981242;28;20458;-79
2022/06/26 10:39:43;;;;;;;8.70;7.88;;;;;;;31.19;46.71;100720.38;4995664;28;20034;-79
2022/06/26 10:45:14;;;;;;;7.45;6.85;;;;;;;31.14;47.31;100730.94;5014091;28;20414;-80
2022/06/26 10:47:44;;;;;;;8.55;7.85;;;;;;;31.11;48.16;100723.09;4993493;28;20588;-80
2022/06/26 10:50:41;;;;;;;8.25;7.47;;;;;;;31.17;47.21;100727.88;5015360;28;20040;-79
2022/06/26 10:53:11;;;;;;;9.00;8.07;;;;;;;31.05;47.52;100727.31;4980385;28;20136;-79
2022/06/26 10:55:38;;;;;;;8.52;7.72;;;;;;;31.06;48.19;100722.72;5020085;28;20407;-80
2022/06/26 10:58:05;;;;;;;8.52;7.72;;;;;;;31.14;47.93;100727.38;4997438;28;20151;-78
2022/06/26 11:00:32;;;;;;;8.27;7.65;;;;;;;31.73;45.75;100720.97;5000945;28;20038;-79
2022/06/26 11:02:59;;;;;;;8.55;7.88;;;;;;;32.43;43.70;100715.09;4983209;28;20041;-78
2022/06/26 11:05:28;;;;;;;7.78;6.95;;;;;;;32.74;42.38;100710.63;4996584;28;20846;-79
2022/06/26 11:07:55;;;;;;;7.55;6.95;;;;;;;33.31;42.28;100723.31;5007974;28;20046;-81
2022/06/26 11:10:25;;;;;;;7.72;7.13;;;;;;;33.44;39.49;100706.34;5020055;28;20029;-79
2022/06/26 11:12:54;;;;;;;7.05;6.45;;;;;;;33.66;38.98;100704.69;4994718;28;20140;-78
2022/06/26 11:15:33;;;;;;;7.63;6.93;;;;;;;33.32;39.85;100703.13;4989518;28;20630;-78
2022/06/26 11:18:03;;;;;;;7.75;7.05;;;;;;;32.28;40.54;100701.22;4994465;28;20092;-79
2022/06/26 11:20:51;;;;;;;9.10;7.32;;;;;;;31.71;43.97;100706.63;5024479;28;20042;-77
2022/06/26 11:23:19;;;;;;;7.90;7.20;;;;;;;31.21;46.22;100706.59;4991569;28;20041;-77
2022/06/26 11:25:48;;;;;;;7.88;7.28;;;;;;;31.21;44.77;100702.03;5012487;28;20048;-77
2022/06/26 11:28:16;;;;;;;8.98;7.50;;;;;;;31.64;45.89;100703.72;5017537;28;20037;-77